Hamme, Belgium
Current Conditions -  °F | °C
As of 4:20 AM on Saturday 29 Nov 2014 (Local Time) from EBAW Reporting Station
Clear Clear  
Wind Chill: 34°   Ceiling: Unl
Heat Index: 39°   Visibility: 4mi
Dew Point: 36°   Wind: 8mph
Humidity: 87%   Direction: 90°E
Pressure: 29.85"   Gusts: NA
Location:  51.1°N, 4.14°E
Report Text: EBAW 290320Z AUTO 09007KT 6000 NCD 04/02 Q1011
Loading
Personal Weather Stations






























Interactive Weather Map New forecast layout! Learn more

10-Day Weather Forecast

Advertisements
Track Severe Weather on mobile